Terminal Aerodrome Forecast
Issued by NWS Quad Cities IA IL

Home | Current Version | Previous Version | Graphics & Text | Print | Product List | Glossary On
Versions: 1 2 3 4 5 6 7 8 9 10 11 12 13 14 15 16 17 18 19 20 21 22 23 24 25 26 27 28 29 30 31 32 33 34 35 36
000
FTUS43 KDVN 252130 AAB
TAFMLI
TAF AMD
KMLI 252130Z 2522/2618 05011KT 6SM BR OVC007
      TEMPO 2522/2524 -SHRA BKN009
     FM260200 02012KT 3SM -DZ BR OVC006
     FM260700 08004KT 2SM -DZ BR OVC004=

USA.gov is the U.S. government's official web portal to all federal, state and local government web resources and services.